Time;durP1;ratioP1;P1;durP2;ratioP2;P2;SDS_P1;SDS_P2;PMS_P1;PMS_P2;Temp;Humidity;BMP_temperature;BMP_pressure;BME280_temperature;BME280_humidity;BME280_pressure;Samples;Min_cycle;Max_cycle;Signal;HPM_P1;HPM_P2
2021/09/03 00:01:11;;;;;;;;;;;;;;;21.51;43.01;101268.31;5058015;28;778;-32
2021/09/03 00:03:37;;;;;;;;;;;;;;;23.44;39.70;101273.63;5058126;28;806;-31
2021/09/03 00:06:04;;;;;;;;;;;;;;;24.56;36.87;101283.59;5058497;28;829;-34
2021/09/03 00:08:30;;;;;;;;;;;;;;;25.12;36.12;101276.38;5058032;28;1922;-32
2021/09/03 00:10:56;;;;;;;;;;;;;;;25.19;36.52;101283.66;5058085;28;787;-32
2021/09/03 00:13:22;;;;;;;;;;;;;;;22.71;41.21;101285.66;5058152;28;999;-33
2021/09/03 00:15:48;;;;;;;;;;;;;;;21.99;42.69;101282.09;5057614;28;806;-34
2021/09/03 00:18:13;;;;;;;;;;;;;;;21.80;43.05;101279.31;5057703;28;763;-32
2021/09/03 00:20:39;;;;;;;;;;;;;;;21.62;43.39;101272.72;5058451;28;779;-32
2021/09/03 00:23:05;;;;;;;;;;;;;;;21.53;43.66;101278.88;5058298;28;815;-34
2021/09/03 00:25:31;;;;;;;;;;;;;;;23.56;40.01;101276.13;5057467;28;848;-33
2021/09/03 00:27:56;;;;;;;;;;;;;;;24.51;37.24;101277.81;5057640;28;1910;-34
2021/09/03 00:30:22;;;;;;;;;;;;;;;25.07;36.42;101282.22;5056154;28;951;-30
2021/09/03 00:32:48;;;;;;;;;;;;;;;25.19;36.76;101283.66;5056114;28;1494;-32
2021/09/03 00:35:14;;;;;;;;;;;;;;;22.58;41.69;101285.91;5057727;28;775;-34
2021/09/03 00:37:39;;;;;;;;;;;;;;;22.01;42.56;101276.59;5057956;28;759;-33
2021/09/03 00:40:06;;;;;;;;;;;;;;;21.70;43.42;101277.44;5057504;28;771;-30
2021/09/03 00:42:32;;;;;;;;;;;;;;;21.56;43.69;101275.09;5057460;28;794;-32
2021/09/03 00:44:57;;;;;;;;;;;;;;;21.50;43.68;101274.63;5059840;28;1207;-34
2021/09/03 00:47:23;;;;;;;;;;;;;;;23.57;40.05;101283.22;5039010;28;1141;-29
2021/09/03 00:49:49;;;;;;;;;;;;;;;24.50;37.60;101268.06;5056803;28;1906;-34
2021/09/03 00:52:15;;;;;;;;;;;;;;;25.06;36.73;101267.91;5057743;28;767;-28
2021/09/03 00:54:40;;;;;;;;;;;;;;;25.00;36.60;101275.75;5057304;28;786;-35
2021/09/03 00:57:07;;;;;;;;;;;;;;;22.41;42.47;101268.66;5056055;28;792;-33
2021/09/03 00:59:36;;;;;;;;;;;;;;;21.99;43.14;101266.00;5055852;28;1010;-32
2021/09/03 01:02:01;;;;;;;;;;;;;;;21.73;43.65;101263.78;5057194;28;825;-31
2021/09/03 01:04:27;;;;;;;;;;;;;;;21.69;43.99;101270.38;5056257;28;751;-35
2021/09/03 01:06:53;;;;;;;;;;;;;;;21.52;44.68;101259.28;5057155;28;783;-34
2021/09/03 01:09:21;;;;;;;;;;;;;;;23.76;40.47;101257.25;5056801;28;1902;-34
2021/09/03 01:11:50;;;;;;;;;;;;;;;24.74;38.04;101253.13;5056786;28;810;-32
2021/09/03 01:14:17;;;;;;;;;;;;;;;25.12;37.51;101253.00;5056829;28;955;-32
2021/09/03 01:16:43;;;;;;;;;;;;;;;25.46;37.29;101258.59;5057115;28;768;-33
2021/09/03 01:19:13;;;;;;;;;;;;;;;25.62;36.88;101263.22;5056022;28;827;-32
2021/09/03 01:21:42;;;;;;;;;;;;;;;23.25;41.30;101250.34;5056949;28;879;-32
2021/09/03 01:24:13;;;;;;;;;;;;;;;22.42;43.24;101262.31;5055402;28;847;-33
2021/09/03 01:26:39;;;;;;;;;;;;;;;22.04;43.73;101257.56;5056568;28;815;-34
2021/09/03 01:29:08;;;;;;;;;;;;;;;21.75;44.34;101260.97;5056561;28;1969;-31
2021/09/03 01:31:34;;;;;;;;;;;;;;;21.63;44.78;101258.38;5056347;28;795;-34
2021/09/03 01:33:59;;;;;;;;;;;;;;;22.87;44.82;101261.78;5055348;28;1302;-34
2021/09/03 01:36:48;;;;;;;;;;;;;;;24.50;38.98;101256.44;5056813;28;767;-35
2021/09/03 01:39:13;;;;;;;;;;;;;;;25.13;37.70;101257.34;5056369;28;755;-34
2021/09/03 01:41:51;;;;;;;;;;;;;;;25.34;38.02;101263.41;5056919;28;779;-29
2021/09/03 01:44:16;;;;;;;;;;;;;;;22.66;42.78;101258.41;5056239;28;1202;-31
2021/09/03 01:46:45;;;;;;;;;;;;;;;22.18;43.58;101253.66;5056296;28;802;-34
2021/09/03 01:49:10;;;;;;;;;;;;;;;21.87;44.09;101264.44;5056206;28;1898;-32
2021/09/03 01:51:35;;;;;;;;;;;;;;;21.74;44.42;101275.31;5056498;28;775;-36
2021/09/03 01:54:00;;;;;;;;;;;;;;;21.61;44.25;101264.81;5056504;28;814;-28
2021/09/03 01:56:26;;;;;;;;;;;;;;;23.52;41.79;101278.28;5056471;28;743;-35
2021/09/03 01:58:51;;;;;;;;;;;;;;;24.65;38.99;101273.75;5056033;28;943;-34
2021/09/03 02:01:17;;;;;;;;;;;;;;;25.17;38.21;101274.88;5056226;28;732;-34
2021/09/03 02:03:42;;;;;;;;;;;;;;;25.41;38.14;101273.38;5056540;28;731;-33
2021/09/03 02:06:07;;;;;;;;;;;;;;;25.74;37.41;101266.50;5056387;28;802;-37
2021/09/03 02:08:33;;;;;;;;;;;;;;;23.73;39.67;101266.47;5056413;28;1914;-31
2021/09/03 02:10:58;;;;;;;;;;;;;;;22.69;43.73;101269.69;5055955;28;739;-32
2021/09/03 02:13:23;;;;;;;;;;;;;;;22.26;44.14;101271.72;5055938;28;1006;-32
2021/09/03 02:15:51;;;;;;;;;;;;;;;21.97;44.44;101276.00;5057701;28;763;-33
2021/09/03 02:18:19;;;;;;;;;;;;;;;21.89;44.63;101286.53;5059608;28;791;-34
2021/09/03 02:20:45;;;;;;;;;;;;;;;21.82;45.01;101278.19;5060375;28;834;-34
2021/09/03 02:23:10;;;;;;;;;;;;;;;22.12;47.51;101279.16;5060225;28;866;-33
2021/09/03 02:25:35;;;;;;;;;;;;;;;24.23;40.62;101277.00;5060152;28;885;-32
2021/09/03 02:28:01;;;;;;;;;;;;;;;24.82;40.49;101274.72;5060260;28;1968;-33
2021/09/03 02:30:26;;;;;;;;;;;;;;;25.33;39.43;101284.06;5059981;28;943;-34
2021/09/03 02:32:54;;;;;;;;;;;;;;;25.65;39.41;101284.47;5059530;28;799;-33
2021/09/03 02:35:23;;;;;;;;;;;;;;;25.84;39.15;101282.56;5060186;28;744;-34
2021/09/03 02:37:48;;;;;;;;;;;;;;;25.91;39.08;101287.13;5060102;28;771;-34
2021/09/03 02:40:14;;;;;;;;;;;;;;;25.73;39.74;101281.81;5059402;28;823;-31
2021/09/03 02:42:39;;;;;;;;;;;;;;;23.14;45.08;101271.97;5059974;28;854;-32
2021/09/03 02:45:05;;;;;;;;;;;;;;;22.57;45.39;101273.50;5061920;28;1312;-32
2021/09/03 02:47:30;;;;;;;;;;;;;;;22.23;45.55;101272.00;5058317;28;815;-33
2021/09/03 02:49:55;;;;;;;;;;;;;;;22.11;45.49;101279.28;5059175;28;1901;-33
2021/09/03 02:52:27;;;;;;;;;;;;;;;21.94;45.74;101276.28;5059166;28;825;-33
2021/09/03 02:54:52;;;;;;;;;;;;;;;21.89;45.62;101273.16;5059488;28;755;-34
2021/09/03 02:57:18;;;;;;;;;;;;;;;23.76;42.99;101282.28;5059567;28;835;-33
2021/09/03 02:59:43;;;;;;;;;;;;;;;24.81;39.84;101281.13;5059071;28;1014;-31
2021/09/03 03:02:11;;;;;;;;;;;;;;;25.33;38.78;101292.16;5059387;28;755;-34
2021/09/03 03:04:37;;;;;;;;;;;;;;;25.48;39.01;101303.19;5059423;28;704;-34
2021/09/03 03:07:05;;;;;;;;;;;;;;;22.89;43.74;101317.16;5059439;28;787;-35
2021/09/03 03:09:30;;;;;;;;;;;;;;;22.33;44.63;101315.75;5059086;28;1910;-34
2021/09/03 03:11:56;;;;;;;;;;;;;;;22.09;44.72;101318.75;5059397;28;831;-34
2021/09/03 03:14:28;;;;;;;;;;;;;;;21.96;44.87;101327.91;5058688;28;1002;-32
2021/09/03 03:16:56;;;;;;;;;;;;;;;23.80;40.72;101329.38;5059022;28;807;-33
2021/09/03 03:19:25;;;;;;;;;;;;;;;24.80;37.73;101335.09;5059270;28;807;-34
2021/09/03 03:21:50;;;;;;;;;;;;;;;25.33;36.20;101337.09;5059005;28;755;-35
2021/09/03 03:24:16;;;;;;;;;;;;;;;25.42;37.20;101333.47;5058684;28;859;-32
2021/09/03 03:26:41;;;;;;;;;;;;;;;25.64;36.88;101345.59;5058594;28;798;-31
2021/09/03 03:29:06;;;;;;;;;;;;;;;23.62;40.49;101348.06;5058445;28;1910;-32
2021/09/03 03:31:32;;;;;;;;;;;;;;;22.74;42.92;101349.72;5058807;28;802;-31
2021/09/03 03:34:00;;;;;;;;;;;;;;;22.29;43.40;101351.84;5058920;28;787;-33
2021/09/03 03:36:25;;;;;;;;;;;;;;;22.12;43.54;101350.69;5057651;28;870;-32
2021/09/03 03:38:51;;;;;;;;;;;;;;;23.93;40.17;101355.03;5058556;28;820;-36
2021/09/03 03:41:16;;;;;;;;;;;;;;;24.70;37.77;101359.38;5058817;28;763;-32
2021/09/03 03:43:41;;;;;;;;;;;;;;;25.21;37.19;101358.88;5058356;28;1158;-34
2021/09/03 03:46:09;;;;;;;;;;;;;;;25.40;38.08;101362.41;5058541;28;768;-34
2021/09/03 03:48:35;;;;;;;;;;;;;;;25.67;36.81;101361.44;5057351;28;1967;-30
2021/09/03 03:51:00;;;;;;;;;;;;;;;25.50;37.40;101367.69;5058944;28;745;-32
2021/09/03 03:53:25;;;;;;;;;;;;;;;24.85;33.75;101370.47;5058013;28;1072;-33
2021/09/03 03:55:51;;;;;;;;;;;;;;;25.06;33.98;101374.72;5058571;28;747;-33
2021/09/03 03:58:17;;;;;;;;;;;;;;;23.49;34.74;101375.22;5058559;28;962;-30
2021/09/03 04:00:42;;;;;;;;;;;;;;;22.26;40.20;101369.06;5057932;28;826;-27
2021/09/03 04:03:08;;;;;;;;;;;;;;;22.30;41.66;101383.06;5058712;28;787;-29
2021/09/03 04:05:36;;;;;;;;;;;;;;;24.45;35.74;101376.09;5058695;28;879;-31
2021/09/03 04:08:04;;;;;;;;;;;;;;;25.18;34.11;101372.66;5057886;28;1909;-36
2021/09/03 04:10:29;;;;;;;;;;;;;;;25.39;33.06;101375.00;5058592;28;775;-28
2021/09/03 04:12:55;;;;;;;;;;;;;;;25.67;31.76;101388.38;5058552;28;798;-32
2021/09/03 04:15:20;;;;;;;;;;;;;;;25.73;32.59;101392.31;5057228;28;959;-35
2021/09/03 04:17:45;;;;;;;;;;;;;;;25.18;34.20;101396.88;5058403;28;763;-32
2021/09/03 04:20:11;;;;;;;;;;;;;;;25.49;34.61;101393.78;5058041;28;814;-32
2021/09/03 04:22:36;;;;;;;;;;;;;;;25.90;33.27;101401.34;5057808;28;819;-30
2021/09/03 04:25:02;;;;;;;;;;;;;;;25.86;33.73;101396.44;5058016;28;780;-30
2021/09/03 04:27:27;;;;;;;;;;;;;;;26.01;34.58;101392.13;5058446;28;804;-30
2021/09/03 04:29:52;;;;;;;;;;;;;;;19.82;49.55;101399.38;5056898;28;1901;-32
2021/09/03 04:32:17;;;;;;;;;;;;;;;22.57;44.58;101400.34;5057522;28;819;-40
2021/09/03 04:34:43;;;;;;;;;;;;;;;24.53;39.13;101404.91;5057832;28;764;-40
2021/09/03 04:37:08;;;;;;;;;;;;;;;25.35;36.88;101400.56;5057454;28;851;-38
2021/09/03 04:39:33;;;;;;;;;;;;;;;25.68;37.51;101405.41;5056945;28;791;-36
2021/09/03 04:41:59;;;;;;;;;;;;;;;19.86;52.78;101402.66;5058199;28;834;-39
2021/09/03 04:44:24;;;;;;;;;;;;;;;23.16;43.96;101409.53;5058965;28;1148;-37
2021/09/03 04:46:49;;;;;;;;;;;;;;;19.51;53.14;101412.38;5057722;28;810;-31
2021/09/03 04:49:14;;;;;;;;;;;;;;;22.10;47.82;101409.75;5057453;28;1890;-39
2021/09/03 04:51:40;;;;;;;;;;;;;;;24.25;40.70;101409.44;5057443;28;727;-29
2021/09/03 04:54:05;;;;;;;;;;;;;;;25.09;38.31;101401.34;5056164;28;744;-25
2021/09/03 04:56:30;;;;;;;;;;;;;;;25.44;38.89;101404.19;5057310;28;792;-32
2021/09/03 04:58:56;;;;;;;;;;;;;;;19.76;53.46;101402.53;5056769;28;926;-33
2021/09/03 05:01:21;;;;;;;;;;;;;;;22.82;45.71;101397.34;5057122;28;869;-40
2021/09/03 05:03:48;;;;;;;;;;;;;;;19.73;53.38;101407.25;5057523;28;916;-39
2021/09/03 05:06:14;;;;;;;;;;;;;;;21.86;49.71;101418.91;5057078;28;775;-28
2021/09/03 05:08:40;;;;;;;;;;;;;;;20.30;50.08;101413.53;5056897;28;1898;-30
2021/09/03 05:11:05;;;;;;;;;;;;;;;20.95;53.00;101419.25;5057206;28;830;-40
2021/09/03 05:13:30;;;;;;;;;;;;;;;23.67;42.92;101428.22;5056858;28;1124;-31
2021/09/03 05:15:55;;;;;;;;;;;;;;;24.65;40.17;101437.00;5056801;28;743;-32
2021/09/03 05:18:21;;;;;;;;;;;;;;;25.07;39.70;101433.78;5057183;28;787;-40
2021/09/03 05:20:46;;;;;;;;;;;;;;;19.52;53.78;101437.28;5056664;28;875;-39
2021/09/03 05:23:11;;;;;;;;;;;;;;;22.36;48.04;101438.78;5056862;28;764;-29
2021/09/03 05:25:37;;;;;;;;;;;;;;;19.98;52.88;101435.59;5057274;28;807;-31
2021/09/03 05:28:02;;;;;;;;;;;;;;;21.12;52.85;101429.41;5056834;28;1902;-27
2021/09/03 05:30:27;;;;;;;;;;;;;;;22.05;43.85;101425.38;5056435;28;959;-36
2021/09/03 05:32:54;;;;;;;;;;;;;;;20.02;57.15;101438.88;5055719;28;1269;-28
2021/09/03 05:35:20;;;;;;;;;;;;;;;23.29;44.46;101433.44;5056954;28;787;-28
2021/09/03 05:37:45;;;;;;;;;;;;;;;19.55;55.99;101432.53;5056089;28;538;-29
2021/09/03 05:40:11;;;;;;;;;;;;;;;22.72;46.42;101424.16;5056839;28;886;-37
2021/09/03 05:42:36;;;;;;;;;;;;;;;23.96;43.24;101428.16;5056873;28;807;-39
2021/09/03 05:45:01;;;;;;;;;;;;;;;24.71;39.89;101433.69;5056049;28;1155;-29
2021/09/03 05:47:26;;;;;;;;;;;;;;;25.03;38.73;101436.94;5056708;28;795;-29
2021/09/03 05:49:52;;;;;;;;;;;;;;;25.31;39.51;101435.03;5056014;28;1971;-30
2021/09/03 05:52:17;;;;;;;;;;;;;;;19.57;53.27;101438.59;5056472;28;1190;-34
2021/09/03 05:54:42;;;;;;;;;;;;;;;22.40;47.79;101434.03;5056991;28;823;-33
2021/09/03 05:57:08;;;;;;;;;;;;;;;19.92;52.67;101434.22;5056502;28;779;-28
2021/09/03 05:59:33;;;;;;;;;;;;;;;21.79;50.53;101441.84;5055716;28;1010;-33
2021/09/03 06:01:59;;;;;;;;;;;;;;;20.62;49.03;101440.53;5056276;28;775;-27
2021/09/03 06:04:24;;;;;;;;;;;;;;;21.03;52.61;101448.91;5056737;28;768;-32
2021/09/03 06:06:49;;;;;;;;;;;;;;;22.71;42.44;101447.44;5056221;28;767;-32
2021/09/03 06:09:15;;;;;;;;;;;;;;;20.49;54.08;101459.34;5056618;28;1945;-29
2021/09/03 06:11:40;;;;;;;;;;;;;;;23.42;43.78;101449.28;5056794;28;767;-28
2021/09/03 06:14:05;;;;;;;;;;;;;;;24.38;41.10;101460.19;5057861;28;1003;-30
2021/09/03 06:16:31;;;;;;;;;;;;;;;24.90;39.57;101467.78;5075909;28;895;-29
2021/09/03 06:18:56;;;;;;;;;;;;;;;19.39;53.71;101462.19;5076496;28;767;-28
2021/09/03 06:21:22;;;;;;;;;;;;;;;22.28;46.89;101454.69;5075912;28;854;-35
2021/09/03 06:23:47;;;;;;;;;;;;;;;24.20;41.90;101466.34;5076346;28;748;-34
2021/09/03 06:26:12;;;;;;;;;;;;;;;24.92;39.14;101464.94;5076526;28;775;-36
2021/09/03 06:28:38;;;;;;;;;;;;;;;24.92;39.75;101464.94;5072338;28;1972;-36
2021/09/03 06:31:03;;;;;;;;;;;;;;;20.55;53.70;101466.91;5056170;28;818;-28
2021/09/03 06:33:28;;;;;;;;;;;;;;;23.66;43.57;101456.91;5056449;28;747;-36
2021/09/03 06:35:54;;;;;;;;;;;;;;;20.04;54.91;101450.31;5055766;28;894;-33
2021/09/03 06:38:19;;;;;;;;;;;;;;;23.31;43.87;101459.13;5056010;28;796;-37
2021/09/03 06:40:44;;;;;;;;;;;;;;;19.87;55.09;101452.41;5056065;28;789;-31
2021/09/03 06:43:10;;;;;;;;;;;;;;;23.03;45.02;101453.59;5055559;28;1190;-36
2021/09/03 06:45:35;;;;;;;;;;;;;;;19.72;53.49;101458.94;5055974;28;994;-35
2021/09/03 06:48:00;;;;;;;;;;;;;;;22.58;46.12;101455.69;5055904;28;1969;-31
2021/09/03 06:50:25;;;;;;;;;;;;;;;24.07;43.73;101456.69;5055795;28;1305;-33
2021/09/03 06:52:51;;;;;;;;;;;;;;;24.94;38.75;101463.78;5056087;28;743;-33
2021/09/03 06:55:16;;;;;;;;;;;;;;;21.10;48.13;101458.13;5056061;28;775;-34
2021/09/03 06:57:42;;;;;;;;;;;;;;;21.36;50.69;101457.81;5055578;28;807;-36
2021/09/03 07:00:08;;;;;;;;;;;;;;;22.90;41.51;101461.91;5055705;28;971;-37
2021/09/03 07:02:33;;;;;;;;;;;;;;;20.75;52.65;101459.13;5068480;28;1092;-29
2021/09/03 07:04:58;;;;;;;;;;;;;;;23.70;42.30;101469.06;5079016;28;783;-32
2021/09/03 07:07:24;;;;;;;;;;;;;;;20.69;48.90;101471.13;5078511;28;888;-30
2021/09/03 07:09:49;;;;;;;;;;;;;;;21.58;50.10;101476.59;5078951;28;1906;-32
2021/09/03 07:12:14;;;;;;;;;;;;;;;21.38;44.91;101487.97;5078921;28;755;-32
2021/09/03 07:14:40;;;;;;;;;;;;;;;20.82;52.19;101481.69;5064901;28;1005;-31
2021/09/03 07:17:06;;;;;;;;;;;;;;;23.66;42.97;101480.22;5058960;28;1142;-35
2021/09/03 07:19:34;;;;;;;;;;;;;;;20.06;55.18;101478.63;5058919;28;784;-31
2021/09/03 07:22:00;;;;;;;;;;;;;;;23.34;43.35;101488.38;5058297;28;763;-34
2021/09/03 07:24:26;;;;;;;;;;;;;;;19.97;55.34;101489.94;5058795;28;743;-35
2021/09/03 07:26:51;;;;;;;;;;;;;;;23.22;43.42;101487.66;5058611;28;842;-31
2021/09/03 07:29:16;;;;;;;;;;;;;;;19.73;55.24;101480.16;5057793;28;1902;-33
2021/09/03 07:31:42;;;;;;;;;;;;;;;22.66;42.79;101489.03;5058619;28;727;-33
2021/09/03 07:34:07;;;;;;;;;;;;;;;23.47;42.12;101482.75;5058525;28;743;-34
2021/09/03 07:36:32;;;;;;;;;;;;;;;20.78;51.57;101482.94;5057942;28;760;-33
2021/09/03 07:38:57;;;;;;;;;;;;;;;23.28;43.36;101486.25;5058358;28;775;-33
2021/09/03 07:41:23;;;;;;;;;;;;;;;20.70;47.78;101480.03;5058748;28;921;-33
2021/09/03 07:43:49;;;;;;;;;;;;;;;21.95;47.90;101484.25;5059892;28;1104;-33
2021/09/03 07:46:14;;;;;;;;;;;;;;;20.15;49.92;101479.69;5058470;28;739;-32
2021/09/03 07:48:39;;;;;;;;;;;;;;;21.45;50.01;101482.13;5058005;28;1969;-33
2021/09/03 07:51:05;;;;;;;;;;;;;;;23.61;41.55;101477.97;5057626;28;839;-33
2021/09/03 07:53:30;;;;;;;;;;;;;;;20.21;50.36;101474.88;5058347;28;759;-33
2021/09/03 07:55:56;;;;;;;;;;;;;;;22.31;45.63;101475.00;5058180;28;752;-32
2021/09/03 07:58:21;;;;;;;;;;;;;;;24.00;42.50;101477.09;5057169;28;955;-34
2021/09/03 08:00:46;;;;;;;;;;;;;;;20.22;53.10;101472.06;5057991;28;842;-31
2021/09/03 08:03:12;;;;;;;;;;;;;;;23.11;43.25;101475.22;5058694;28;799;-32
2021/09/03 08:05:37;;;;;;;;;;;;;;;20.29;53.59;101465.28;5057491;28;763;-37
2021/09/03 08:08:03;;;;;;;;;;;;;;;23.18;43.06;101471.97;5057871;28;1898;-32
2021/09/03 08:10:32;;;;;;;;;;;;;;;20.24;53.57;101469.28;5057613;28;763;-30
2021/09/03 08:12:57;;;;;;;;;;;;;;;23.14;43.05;101468.72;5057268;28;803;-33
2021/09/03 08:15:22;;;;;;;;;;;;;;;19.91;53.38;101461.03;5057881;28;947;-31
2021/09/03 08:17:48;;;;;;;;;;;;;;;22.77;44.45;101464.81;5057502;28;831;-36
2021/09/03 08:20:14;;;;;;;;;;;;;;;20.59;47.98;101463.00;5057315;28;749;-32
2021/09/03 08:22:39;;;;;;;;;;;;;;;22.34;46.12;101458.66;5057411;28;820;-32
2021/09/03 08:25:05;;;;;;;;;;;;;;;21.86;43.95;101452.88;5057182;28;815;-32
2021/09/03 08:27:30;;;;;;;;;;;;;;;21.90;47.46;101451.66;5057149;28;736;-29
2021/09/03 08:29:55;;;;;;;;;;;;;;;21.52;45.48;101457.38;5057394;28;1969;-30
2021/09/03 08:32:20;;;;;;;;;;;;;;;21.47;49.88;101442.69;5057340;28;803;-31
2021/09/03 08:34:46;;;;;;;;;;;;;;;23.56;40.75;101459.59;5057054;28;842;-31
2021/09/03 08:37:11;;;;;;;;;;;;;;;21.02;50.49;101449.88;5057206;28;787;-29
2021/09/03 08:39:36;;;;;;;;;;;;;;;23.68;41.69;101448.69;5056910;28;823;-35
2021/09/03 08:42:02;;;;;;;;;;;;;;;20.26;53.27;101452.19;5057003;28;779;-30
2021/09/03 08:44:30;;;;;;;;;;;;;;;23.49;41.96;101442.34;5057151;28;1155;-32
2021/09/03 08:46:56;;;;;;;;;;;;;;;19.88;53.86;101437.25;5056932;28;784;-32
2021/09/03 08:49:21;;;;;;;;;;;;;;;23.26;42.29;101442.59;5055861;28;1906;-33
2021/09/03 08:51:46;;;;;;;;;;;;;;;19.59;52.55;101435.81;5055669;28;866;-31
2021/09/03 08:54:11;;;;;;;;;;;;;;;22.69;44.20;101437.84;5056931;28;775;-32
2021/09/03 08:56:37;;;;;;;;;;;;;;;19.67;50.66;101435.22;5056718;28;858;-34
2021/09/03 08:59:02;;;;;;;;;;;;;;;22.44;44.47;101432.75;5056400;28;1026;-32
2021/09/03 09:01:27;;;;;;;;;;;;;;;19.88;49.66;101426.56;5057078;28;791;-34
2021/09/03 09:03:53;;;;;;;;;;;;;;;21.51;47.71;101423.56;5056303;28;720;-31
2021/09/03 09:06:18;;;;;;;;;;;;;;;21.59;43.78;101419.38;5056895;28;909;-34
2021/09/03 09:08:43;;;;;;;;;;;;;;;20.83;50.42;101423.72;5056406;28;2172;-36
2021/09/03 09:11:16;;;;;;;;;;;;;;;23.63;41.71;101419.59;5056390;28;830;-33
2021/09/03 09:13:42;;;;;;;;;;;;;;;20.14;52.06;101421.06;5056600;28;959;-32
2021/09/03 09:16:09;;;;;;;;;;;;;;;23.37;41.97;101414.78;5056005;28;859;-35
2021/09/03 09:18:46;;;;;;;;;;;;;;;19.77;50.57;101422.06;5056105;28;917;-32
2021/09/03 09:21:16;;;;;;;;;;;;;;;22.81;43.40;101425.13;5056670;28;810;-33
2021/09/03 09:23:42;;;;;;;;;;;;;;;20.02;49.76;101406.84;5056464;28;740;-31
2021/09/03 09:26:07;;;;;;;;;;;;;;;22.69;43.72;101402.97;5055611;28;839;-30
2021/09/03 09:28:36;;;;;;;;;;;;;;;20.09;49.00;101409.88;5062894;28;1976;-34
2021/09/03 09:31:01;;;;;;;;;;;;;;;21.57;47.03;101395.41;5055806;28;809;-37
2021/09/03 09:33:26;;;;;;;;;;;;;;;22.03;42.60;101392.50;5056074;28;860;-34
2021/09/03 09:35:52;;;;;;;;;;;;;;;20.09;52.09;101393.84;5056458;28;878;-34
2021/09/03 09:38:19;;;;;;;;;;;;;;;23.27;41.91;101384.41;5056372;28;736;-33
2021/09/03 09:40:45;;;;;;;;;;;;;;;19.82;49.97;101388.69;5055542;28;835;-29
2021/09/03 09:43:29;;;;;;;;;;;;;;;22.35;44.85;101388.84;5056350;28;751;-33
2021/09/03 09:46:09;;;;;;;;;;;;;;;20.12;49.06;101382.97;5056349;28;827;-31
2021/09/03 09:48:56;;;;;;;;;;;;;;;21.94;46.15;101375.38;5055735;28;1910;-32
2021/09/03 09:51:22;;;;;;;;;;;;;;;21.59;43.20;101368.50;5056208;28;811;-33
2021/09/03 09:53:58;;;;;;;;;;;;;;;19.30;49.41;101372.16;5055903;28;788;-36
2021/09/03 09:56:23;;;;;;;;;;;;;;;18.76;51.06;101363.59;5056200;28;709;-33
2021/09/03 09:58:49;;;;;;;;;;;;;;;18.38;52.13;101365.41;5056153;28;1022;-31
2021/09/03 10:01:15;;;;;;;;;;;;;;;18.33;51.98;101363.91;5055974;28;949;-32
2021/09/03 10:03:40;;;;;;;;;;;;;;;20.29;50.76;101358.41;5055909;28;958;-31
2021/09/03 10:06:06;;;;;;;;;;;;;;;22.96;41.82;101361.22;5054897;28;785;-33
2021/09/03 10:08:31;;;;;;;;;;;;;;;23.99;39.32;101367.06;5055691;28;1922;-34
2021/09/03 10:10:56;;;;;;;;;;;;;;;24.42;40.79;101362.91;5055882;28;850;-33
2021/09/03 10:13:22;;;;;;;;;;;;;;;24.86;36.91;101363.25;5055766;28;991;-33
2021/09/03 10:15:47;;;;;;;;;;;;;;;25.13;36.92;101362.34;5055945;28;783;-36
2021/09/03 10:18:12;;;;;;;;;;;;;;;25.38;36.07;101359.00;5054442;28;882;-34
2021/09/03 10:20:37;;;;;;;;;;;;;;;22.23;41.35;101355.09;5055522;28;776;-36
2021/09/03 10:23:03;;;;;;;;;;;;;;;19.60;47.80;101345.94;5055997;28;831;-33
2021/09/03 10:25:28;;;;;;;;;;;;;;;18.62;49.37;101346.78;5055623;28;843;-34
2021/09/03 10:28:06;;;;;;;;;;;;;;;18.44;51.13;101338.31;5055718;28;713;-30
2021/09/03 10:30:31;;;;;;;;;;;;;;;18.38;51.15;101341.44;5055434;28;1965;-35
2021/09/03 10:33:10;;;;;;;;;;;;;;;18.19;51.74;101338.25;5054416;28;767;-29
2021/09/03 10:35:35;;;;;;;;;;;;;;;18.32;51.71;101343.56;5054203;28;1056;-33
2021/09/03 10:38:00;;;;;;;;;;;;;;;18.28;52.02;101342.09;5059191;28;802;-33
2021/09/03 10:40:27;;;;;;;;;;;;;;;20.98;47.04;101333.41;5059189;28;745;-33
2021/09/03 10:42:55;;;;;;;;;;;;;;;21.57;44.24;101333.00;5059470;28;819;-31
2021/09/03 10:45:24;;;;;;;;;;;;;;;18.73;51.21;101330.88;5059654;28;931;-34
2021/09/03 10:47:55;;;;;;;;;;;;;;;18.03;53.17;101326.97;5058743;28;816;-38
2021/09/03 10:50:39;;;;;;;;;;;;;;;17.83;53.64;101331.88;5059191;28;1898;-34
2021/09/03 10:53:07;;;;;;;;;;;;;;;20.95;47.87;101331.84;5059525;28;846;-34
2021/09/03 10:55:52;;;;;;;;;;;;;;;20.63;45.79;101324.59;5058764;28;827;-33
2021/09/03 10:58:33;;;;;;;;;;;;;;;18.44;52.00;101319.66;5058797;28;947;-31
2021/09/03 11:03:36;;;;;;;;;;;;;;;19.35;54.58;101323.78;5058543;28;648;-33
2021/09/03 11:06:01;;;;;;;;;;;;;;;22.41;43.88;101319.56;5058952;28;854;-33
2021/09/03 11:08:39;;;;;;;;;;;;;;;19.40;49.97;101319.78;5059105;28;1909;-32
2021/09/03 11:11:22;;;;;;;;;;;;;;;18.29;52.83;101303.84;5058195;28;798;-36
2021/09/03 11:13:52;;;;;;;;;;;;;;;18.48;57.36;101299.84;5058843;28;1087;-36
2021/09/03 11:16:33;;;;;;;;;;;;;;;21.97;44.97;101300.13;5059033;28;925;-35
2021/09/03 11:19:02;;;;;;;;;;;;;;;19.99;47.55;101294.88;5059124;28;748;-32
2021/09/03 11:21:34;;;;;;;;;;;;;;;18.54;51.69;101293.22;5058764;28;792;-33
2021/09/03 11:24:00;;;;;;;;;;;;;;;18.92;57.00;101294.88;5058436;28;755;-31
2021/09/03 11:26:26;;;;;;;;;;;;;;;22.31;43.86;101293.59;5058833;28;806;-34
2021/09/03 11:28:51;;;;;;;;;;;;;;;20.87;45.34;101294.16;5058691;28;1898;-31
2021/09/03 11:31:17;;;;;;;;;;;;;;;18.69;51.20;101294.75;5058363;28;822;-32
2021/09/03 11:33:45;;;;;;;;;;;;;;;18.26;52.20;101293.41;5058176;28;702;-34
2021/09/03 11:36:11;;;;;;;;;;;;;;;19.80;51.94;101291.00;5058776;28;818;-32
2021/09/03 11:38:36;;;;;;;;;;;;;;;22.59;42.50;101290.25;5057884;28;847;-34
2021/09/03 11:41:10;;;;;;;;;;;;;;;19.78;47.68;101292.94;5058060;28;780;-34
2021/09/03 11:43:36;;;;;;;;;;;;;;;18.44;51.42;101285.03;5058263;28;955;-31
2021/09/03 11:46:12;;;;;;;;;;;;;;;19.02;48.33;101127.06;5058055;28;966;-33
2021/09/03 11:48:38;;;;;;;;;;;;;;;22.81;41.29;101288.34;5057554;28;1967;-31
2021/09/03 11:51:03;;;;;;;;;;;;;;;23.72;39.30;101279.03;5057985;28;820;-32
2021/09/03 11:53:29;;;;;;;;;;;;;;;24.18;38.34;101278.31;5058029;28;796;-31
2021/09/03 11:55:54;;;;;;;;;;;;;;;24.53;37.72;101286.59;5058171;28;854;-34
2021/09/03 11:58:23;;;;;;;;;;;;;;;24.79;37.40;101279.59;5058027;28;1091;-37
2021/09/03 12:00:49;;;;;;;;;;;;;;;24.94;37.10;101277.25;5056851;28;745;-32
2021/09/03 12:03:15;;;;;;;;;;;;;;;25.07;36.58;101272.28;5056187;28;860;-36
2021/09/03 12:05:41;;;;;;;;;;;;;;;25.28;36.42;101276.47;5057307;28;760;-35
2021/09/03 12:08:06;;;;;;;;;;;;;;;25.35;36.42;101279.38;5056566;28;760;-35
2021/09/03 12:10:31;;;;;;;;;;;;;;;25.48;36.20;101275.41;5057403;28;1910;-38
2021/09/03 12:12:57;;;;;;;;;;;;;;;25.63;36.06;101275.69;5057804;28;783;-34
2021/09/03 12:15:22;;;;;;;;;;;;;;;25.68;36.14;101268.84;5055881;28;951;-35
2021/09/03 12:17:47;;;;;;;;;;;;;;;25.80;35.87;101264.00;5057525;28;792;-35
2021/09/03 12:20:14;;;;;;;;;;;;;;;25.88;35.84;101273.97;5057908;28;780;-34
2021/09/03 12:22:55;;;;;;;;;;;;;;;25.90;35.98;101265.72;5057494;28;735;-38
2021/09/03 12:25:30;;;;;;;;;;;;;;;25.93;36.00;101257.31;5056182;28;834;-35
2021/09/03 12:28:14;;;;;;;;;;;;;;;25.94;35.70;101264.41;5057359;28;839;-30
2021/09/03 12:30:40;;;;;;;;;;;;;;;25.90;36.05;101260.34;5056011;28;830;-37
2021/09/03 12:33:21;;;;;;;;;;;;;;;25.97;35.79;101257.84;5056970;28;839;-34
2021/09/03 12:35:50;;;;;;;;;;;;;;;26.13;35.60;101259.75;5057274;28;855;-34
2021/09/03 12:38:16;;;;;;;;;;;;;;;26.14;35.50;101246.09;5057027;28;736;-34
2021/09/03 12:40:41;;;;;;;;;;;;;;;26.04;35.74;101254.31;5057417;28;840;-37
2021/09/03 12:43:13;;;;;;;;;;;;;;;26.10;35.50;101252.84;5056718;28;767;-34
2021/09/03 12:45:45;;;;;;;;;;;;;;;26.17;35.26;101253.84;5056668;28;999;-34
2021/09/03 12:48:10;;;;;;;;;;;;;;;26.24;35.35;101248.63;5055994;28;762;-35
2021/09/03 12:50:35;;;;;;;;;;;;;;;26.28;35.47;101246.47;5056515;28;1971;-34
2021/09/03 12:53:03;;;;;;;;;;;;;;;26.29;35.08;101250.88;5056602;28;748;-36
2021/09/03 12:55:29;;;;;;;;;;;;;;;26.27;35.16;101247.47;5057130;28;735;-33